createdAt,value
2023-05-19T00:01:53.121Z,14.31
2023-05-19T00:04:56.642Z,14.19
2023-05-19T00:08:01.943Z,14.35
2023-05-19T00:11:05.512Z,14.39
2023-05-19T00:14:10.876Z,14.47
2023-05-19T00:17:15.102Z,14.49
2023-05-19T00:20:18.485Z,14.66
2023-05-19T00:23:21.744Z,14.80
2023-05-19T00:26:27.950Z,14.81
2023-05-19T00:29:36.514Z,14.90
2023-05-19T00:32:40.008Z,14.85
2023-05-19T00:35:43.942Z,14.80
2023-05-19T00:38:47.209Z,14.90
2023-05-19T00:41:50.702Z,14.79
2023-05-19T00:44:54.578Z,14.74
2023-05-19T00:47:58.452Z,14.70
2023-05-19T00:51:07.244Z,14.58
2023-05-19T00:54:11.042Z,14.55
2023-05-19T00:57:15.804Z,14.65
2023-05-19T01:00:19.153Z,14.71
2023-05-19T01:03:23.957Z,14.66
2023-05-19T01:06:28.778Z,14.60
2023-05-19T01:09:32.968Z,14.67
2023-05-19T01:12:37.663Z,14.44
2023-05-19T01:16:19.860Z,14.28
2023-05-19T01:19:37.738Z,13.84
2023-05-19T01:23:03.566Z,13.69
2023-05-19T01:26:48.029Z,13.65
2023-05-19T01:30:28.933Z,13.86
2023-05-19T01:33:34.757Z,14.04
2023-05-19T01:36:39.596Z,14.14
2023-05-19T01:39:44.211Z,14.37
2023-05-19T01:42:48.144Z,14.45
2023-05-19T01:45:52.801Z,14.76
2023-05-19T01:48:57.942Z,15.13
2023-05-19T01:52:02.015Z,15.32
2023-05-19T01:55:06.192Z,15.42
2023-05-19T01:58:27.767Z,15.73
2023-05-19T02:01:38.955Z,16.06
2023-05-19T02:04:46.426Z,16.26
2023-05-19T02:07:59.746Z,16.29
2023-05-19T02:11:08.838Z,16.16
2023-05-19T02:14:21.863Z,16.02
2023-05-19T02:17:30.340Z,15.72
2023-05-19T02:20:34.876Z,15.37
2023-05-19T02:23:38.104Z,15.10
2023-05-19T02:26:41.784Z,14.76
2023-05-19T02:29:45.458Z,14.49
2023-05-19T02:32:48.881Z,14.04
2023-05-19T02:35:52.327Z,13.71
2023-05-19T02:38:55.721Z,13.30
2023-05-19T02:41:59.001Z,13.09
2023-05-19T02:45:02.731Z,13.03
2023-05-19T02:48:06.736Z,12.97
2023-05-19T02:51:10.454Z,12.70
2023-05-19T02:54:13.911Z,12.45
2023-05-19T02:57:17.529Z,12.33
2023-05-19T03:00:20.891Z,12.44
2023-05-19T03:03:24.653Z,12.39
2023-05-19T03:06:28.437Z,12.33
2023-05-19T03:09:32.248Z,12.36
2023-05-19T03:12:35.680Z,12.49
2023-05-19T03:15:39.252Z,12.60
2023-05-19T03:18:42.874Z,12.70
2023-05-19T03:21:47.343Z,12.79
2023-05-19T03:24:51.806Z,12.76
2023-05-19T03:27:55.249Z,12.67
2023-05-19T03:30:58.631Z,12.71
2023-05-19T03:34:06.038Z,12.73
2023-05-19T03:37:11.391Z,12.90
2023-05-19T03:40:19.457Z,13.08
2023-05-19T03:43:24.209Z,13.21
2023-05-19T03:46:34.387Z,13.28
2023-05-19T03:49:54.633Z,13.36
2023-05-19T03:53:20.461Z,13.62
2023-05-19T03:56:25.778Z,13.87
2023-05-19T03:59:29.466Z,14.11
2023-05-19T04:02:33.063Z,14.29
2023-05-19T04:05:36.551Z,14.51
2023-05-19T04:08:40.783Z,14.53
2023-05-19T04:11:44.324Z,14.56
2023-05-19T04:14:47.514Z,14.69
2023-05-19T04:17:50.895Z,14.83
2023-05-19T04:20:54.833Z,14.74
2023-05-19T04:23:59.911Z,14.66
2023-05-19T04:27:05.376Z,14.74
2023-05-19T04:30:09.406Z,14.78
2023-05-19T04:33:13.889Z,14.79
2023-05-19T04:36:22.094Z,14.90
2023-05-19T04:39:27.985Z,14.85
2023-05-19T04:42:33.722Z,14.83
2023-05-19T04:45:38.960Z,14.62
2023-05-19T04:48:43.534Z,14.58
2023-05-19T04:51:51.530Z,14.48
2023-05-19T04:55:00.663Z,14.43
2023-05-19T04:58:05.681Z,14.39
2023-05-19T05:01:10.305Z,14.45
2023-05-19T05:04:13.913Z,14.51
2023-05-19T05:07:18.358Z,14.18
2023-05-19T05:10:22.584Z,14.10
2023-05-19T05:13:26.702Z,14.06
2023-05-19T05:16:30.967Z,14.08
2023-05-19T05:19:35.213Z,14.17
2023-05-19T05:22:39.576Z,13.96
2023-05-19T05:25:45.638Z,13.97
2023-05-19T05:28:51.431Z,13.83
2023-05-19T05:31:54.865Z,13.79
2023-05-19T05:34:59.760Z,13.99
2023-05-19T05:38:04.431Z,13.63
2023-05-19T05:41:08.113Z,13.17
2023-05-19T05:44:13.551Z,13.01
2023-05-19T05:47:19.906Z,12.87
2023-05-19T05:50:23.971Z,12.82
2023-05-19T05:53:32.961Z,13.02
2023-05-19T05:56:38.113Z,13.23
2023-05-19T05:59:46.119Z,13.30
2023-05-19T06:02:51.983Z,13.63
2023-05-19T06:05:56.212Z,13.50
2023-05-19T06:08:59.586Z,13.33
2023-05-19T06:12:04.275Z,13.24
2023-05-19T06:15:12.634Z,13.39
2023-05-19T06:18:45.006Z,13.18
2023-05-19T06:21:48.304Z,13.04
2023-05-19T06:24:51.899Z,13.12
2023-05-19T06:27:55.878Z,12.96
2023-05-19T06:31:00.776Z,12.85
2023-05-19T06:34:26.430Z,12.57
2023-05-19T06:37:30.068Z,12.65
2023-05-19T06:40:33.641Z,12.46
2023-05-19T06:43:37.386Z,12.38
2023-05-19T06:46:40.623Z,12.39
2023-05-19T06:49:51.891Z,12.47
2023-05-19T06:52:55.181Z,12.41
2023-05-19T06:56:00.047Z,12.32
2023-05-19T06:59:08.104Z,12.40
2023-05-19T07:02:13.739Z,12.54
2023-05-19T07:05:17.428Z,12.44
2023-05-19T07:08:28.614Z,12.48
2023-05-19T07:11:33.882Z,12.47
2023-05-19T07:14:39.559Z,12.22
2023-05-19T07:17:43.257Z,12.06
2023-05-19T07:20:46.724Z,11.83
2023-05-19T07:23:50.059Z,11.70
2023-05-19T07:26:53.369Z,11.45
2023-05-19T07:29:56.648Z,11.42
2023-05-19T07:32:59.897Z,11.21
2023-05-19T07:36:03.239Z,11.11
2023-05-19T07:39:06.856Z,10.89
2023-05-19T07:42:11.214Z,10.82
2023-05-19T07:45:14.515Z,10.79
2023-05-19T07:48:19.445Z,10.84
2023-05-19T07:51:22.733Z,10.92
2023-05-19T07:54:26.098Z,10.93
2023-05-19T07:57:29.273Z,11.03
2023-05-19T08:00:33.030Z,11.07
2023-05-19T08:03:36.637Z,11.22
2023-05-19T08:06:40.188Z,11.23
2023-05-19T08:09:43.439Z,11.20
2023-05-19T08:12:46.801Z,11.19
2023-05-19T08:15:50.147Z,11.17
2023-05-19T08:18:53.485Z,11.23
2023-05-19T08:21:57.039Z,11.09
2023-05-19T08:25:00.352Z,11.04
2023-05-19T08:28:03.590Z,10.92
2023-05-19T08:31:06.957Z,10.94
2023-05-19T08:34:10.257Z,10.91
2023-05-19T08:37:14.000Z,10.84
2023-05-19T08:40:21.377Z,10.76
2023-05-19T08:43:24.635Z,10.57
2023-05-19T08:46:27.892Z,10.41
2023-05-19T08:49:36.242Z,10.48
2023-05-19T08:53:33.297Z,10.30
2023-05-19T08:56:39.785Z,10.11
2023-05-19T08:59:47.804Z,9.92
2023-05-19T09:03:00.801Z,9.82
2023-05-19T09:06:14.851Z,9.82
2023-05-19T09:09:18.154Z,9.66
2023-05-19T09:12:22.070Z,9.55
2023-05-19T09:15:29.107Z,9.54
2023-05-19T09:18:32.575Z,9.63
2023-05-19T09:21:35.771Z,9.66
2023-05-19T09:24:41.089Z,9.71
2023-05-19T09:27:44.408Z,9.69
2023-05-19T09:30:47.697Z,9.65
2023-05-19T09:33:54.865Z,9.63
2023-05-19T09:37:00.436Z,9.63
2023-05-19T09:40:06.119Z,9.62
2023-05-19T09:43:09.809Z,9.50
2023-05-19T09:46:14.577Z,9.31
2023-05-19T09:49:33.399Z,9.24
2023-05-19T09:52:41.390Z,9.28
2023-05-19T09:55:44.674Z,9.28
2023-05-19T09:58:49.332Z,9.35
2023-05-19T10:01:57.494Z,9.27
2023-05-19T10:05:01.933Z,9.18
2023-05-19T10:08:07.962Z,8.98
2023-05-19T10:11:12.086Z,8.91
2023-05-19T10:14:16.253Z,8.80
2023-05-19T10:17:19.694Z,8.62
2023-05-19T10:20:24.180Z,8.45
